sim
Sign-in with your pilot id or email,
or register
Callsign
Passwort

Schedule Details

Flight Number: OEC674
Departure: Kos Airport (LGKO) at Time
Arrival: Munich Airport (EDDM) at Time
Route: LARK3A LARKI UL609 MES UG18 FSK UL608 DISOR LONTA UL608 DOLEV GORPA RASTA REDBU Q112 NAPSA NAPS3A

Weather Information
Getting current METAR information for LGKO 190850Z 34008KT 9999 FEW020 27/22 Q1013
Getting current METAR information for EDDM 190850Z 08007KT 050V120 CAVOK 14/08 Q1020 NOSIG

Schedule Frequency

Route Map